createdAt,value
2022-09-30T00:00:29.870Z,5.23
2022-09-30T00:03:20.234Z,4.93
2022-09-30T00:06:09.267Z,5.43
2022-09-30T00:08:58.065Z,5.60
2022-09-30T00:11:46.776Z,6.97
2022-09-30T00:14:35.384Z,5.07
2022-09-30T00:17:23.836Z,6.33
2022-09-30T00:20:14.893Z,5.43
2022-09-30T00:23:03.582Z,6.30
2022-09-30T00:25:52.138Z,5.57
2022-09-30T00:28:41.098Z,4.17
2022-09-30T00:31:31.441Z,5.73
2022-09-30T00:34:20.608Z,6.20
2022-09-30T00:37:11.685Z,3.90
2022-09-30T00:40:00.506Z,6.37
2022-09-30T00:42:49.257Z,4.07
2022-09-30T00:45:37.696Z,4.73
2022-09-30T00:48:28.487Z,5.27
2022-09-30T00:51:17.102Z,5.10
2022-09-30T00:54:08.344Z,4.77
2022-09-30T00:57:00.318Z,4.10
2022-09-30T00:59:49.412Z,6.93
2022-09-30T01:02:37.827Z,4.77
2022-09-30T01:05:27.308Z,7.43
2022-09-30T01:08:18.162Z,6.07
2022-09-30T01:11:08.560Z,6.10
2022-09-30T01:13:59.691Z,4.63
2022-09-30T01:16:56.829Z,6.33
2022-09-30T01:20:38.497Z,6.40
2022-09-30T01:23:52.619Z,6.80
2022-09-30T01:27:08.423Z,5.63
2022-09-30T01:30:12.577Z,6.10
2022-09-30T01:33:14.800Z,8.23
2022-09-30T01:36:18.075Z,5.97
2022-09-30T01:39:21.092Z,4.67
2022-09-30T01:42:14.923Z,6.30
2022-09-30T01:45:10.047Z,4.53
2022-09-30T01:48:00.210Z,6.87
2022-09-30T01:50:53.553Z,4.47
2022-09-30T01:53:44.414Z,9.30
2022-09-30T01:56:36.597Z,7.57
2022-09-30T01:59:27.603Z,5.83
2022-09-30T02:02:19.623Z,4.17
2022-09-30T02:05:10.409Z,5.90
2022-09-30T02:08:02.155Z,4.53
2022-09-30T02:10:56.156Z,5.00
2022-09-30T02:13:49.297Z,5.80
2022-09-30T02:16:40.739Z,5.27
2022-09-30T02:19:31.960Z,5.00
2022-09-30T02:22:23.537Z,3.20
2022-09-30T02:25:20.192Z,6.80
2022-09-30T02:28:12.212Z,7.27
2022-09-30T02:31:01.988Z,8.63
2022-09-30T02:33:51.969Z,3.80
2022-09-30T02:36:42.220Z,2.83
2022-09-30T02:39:34.514Z,3.63
2022-09-30T02:42:28.465Z,4.13
2022-09-30T02:45:20.737Z,4.47
2022-09-30T02:48:17.045Z,4.50
2022-09-30T02:51:07.561Z,4.03
2022-09-30T02:54:02.146Z,4.70
2022-09-30T02:56:54.348Z,8.57
2022-09-30T02:59:44.078Z,4.93
2022-09-30T03:02:32.547Z,4.03
2022-09-30T03:05:21.336Z,5.10
2022-09-30T03:08:09.726Z,5.63
2022-09-30T03:10:58.196Z,4.47
2022-09-30T03:14:12.498Z,3.23
2022-09-30T03:17:31.043Z,3.50
2022-09-30T03:20:35.291Z,4.80
2022-09-30T03:23:44.328Z,4.73
2022-09-30T03:26:39.133Z,6.00
2022-09-30T03:29:33.225Z,3.97
2022-09-30T03:32:44.539Z,7.10
2022-09-30T03:35:37.252Z,5.77
2022-09-30T03:38:33.930Z,5.67
2022-09-30T03:41:28.283Z,4.93
2022-09-30T03:44:18.304Z,10.57
2022-09-30T03:47:08.900Z,5.97
2022-09-30T03:50:00.787Z,7.47
2022-09-30T03:52:49.303Z,13.37
2022-09-30T03:55:47.727Z,6.13
2022-09-30T03:58:43.984Z,5.50
2022-09-30T04:01:32.402Z,7.93
2022-09-30T04:04:20.830Z,9.27
2022-09-30T04:07:10.852Z,12.77
2022-09-30T04:09:59.370Z,13.47
2022-09-30T04:12:47.753Z,8.20
2022-09-30T04:15:36.255Z,11.07
2022-09-30T04:18:24.762Z,7.87
2022-09-30T04:21:14.509Z,6.93
2022-09-30T04:24:04.755Z,7.47
2022-09-30T04:26:53.329Z,7.73
2022-09-30T04:29:41.817Z,6.87
2022-09-30T04:32:30.418Z,6.57
2022-09-30T04:35:18.816Z,8.53
2022-09-30T04:38:07.419Z,5.57
2022-09-30T04:40:57.313Z,6.03
2022-09-30T04:43:46.701Z,7.97
2022-09-30T04:46:36.623Z,6.77
2022-09-30T04:49:25.142Z,5.90
2022-09-30T04:52:13.613Z,6.70
2022-09-30T04:55:02.091Z,5.47
2022-09-30T04:57:52.567Z,4.73
2022-09-30T05:00:40.991Z,6.10
2022-09-30T05:03:29.505Z,5.57
2022-09-30T05:06:18.114Z,6.93
2022-09-30T05:09:06.777Z,7.67
2022-09-30T05:11:55.267Z,5.33
2022-09-30T05:14:45.120Z,5.20
2022-09-30T05:17:33.725Z,5.20
2022-09-30T05:20:22.217Z,5.27
2022-09-30T05:23:10.593Z,7.80
2022-09-30T05:25:59.366Z,3.83
2022-09-30T05:28:47.859Z,4.53
2022-09-30T05:31:37.801Z,7.57
2022-09-30T05:34:26.626Z,5.63
2022-09-30T05:37:15.421Z,3.27
2022-09-30T05:40:04.013Z,4.43
2022-09-30T05:42:52.515Z,3.37
2022-09-30T05:45:40.962Z,3.10
2022-09-30T05:48:30.838Z,5.70
2022-09-30T05:51:19.209Z,7.47
2022-09-30T05:54:07.655Z,6.50
2022-09-30T05:56:56.067Z,4.97
2022-09-30T05:59:44.570Z,3.73
2022-09-30T06:02:33.540Z,5.13
2022-09-30T06:05:03.186Z,8.20
2022-09-30T06:07:31.360Z,3.37
2022-09-30T06:09:59.484Z,4.60
2022-09-30T06:12:28.836Z,7.27
2022-09-30T06:14:57.263Z,7.00
2022-09-30T06:17:25.435Z,5.20
2022-09-30T06:19:53.665Z,4.97
2022-09-30T06:22:23.184Z,4.47
2022-09-30T06:24:54.966Z,5.83
2022-09-30T06:27:25.055Z,11.70
2022-09-30T06:29:53.316Z,5.40
2022-09-30T06:32:21.449Z,4.93
2022-09-30T06:34:49.664Z,4.93
2022-09-30T06:37:18.543Z,6.30
2022-09-30T06:39:48.065Z,4.70
2022-09-30T06:42:16.256Z,10.73
2022-09-30T06:44:52.732Z,9.13
2022-09-30T06:47:25.439Z,10.60
2022-09-30T06:49:58.466Z,27.37
2022-09-30T06:52:27.328Z,12.10
2022-09-30T06:54:57.424Z,10.37
2022-09-30T06:57:27.703Z,9.93
2022-09-30T06:59:56.184Z,14.77
2022-09-30T07:02:24.376Z,28.57
2022-09-30T07:04:52.622Z,7.07
2022-09-30T07:07:22.222Z,40.20
2022-09-30T07:09:50.412Z,12.93
2022-09-30T07:12:19.992Z,14.00
2022-09-30T07:14:48.267Z,16.63
2022-09-30T07:17:16.391Z,24.73
2022-09-30T07:19:44.649Z,9.10
2022-09-30T07:22:26.844Z,13.77
2022-09-30T07:24:55.169Z,10.60
2022-09-30T07:27:24.753Z,31.37
2022-09-30T07:30:12.541Z,21.63
2022-09-30T07:32:41.257Z,19.03
2022-09-30T07:35:09.912Z,18.97
2022-09-30T07:37:38.097Z,12.50
2022-09-30T07:40:07.945Z,48.40
2022-09-30T07:42:41.642Z,33.27
2022-09-30T07:45:11.079Z,10.20
2022-09-30T07:47:39.260Z,97.47
2022-09-30T07:50:10.277Z,76.43
2022-09-30T07:52:38.434Z,15.17
2022-09-30T07:55:07.256Z,39.10
2022-09-30T07:57:35.824Z,11.30
2022-09-30T08:00:29.805Z,11.40
2022-09-30T08:02:55.552Z,8.97
2022-09-30T08:05:23.823Z,9.97
2022-09-30T08:07:51.973Z,12.23
2022-09-30T08:12:54.646Z,24.27
2022-09-30T08:15:27.426Z,17.20
2022-09-30T08:17:55.584Z,11.97
2022-09-30T08:20:23.969Z,26.60
2022-09-30T08:22:55.556Z,19.17
2022-09-30T08:25:24.132Z,15.10
2022-09-30T08:27:52.526Z,11.63
2022-09-30T08:30:20.950Z,26.00
2022-09-30T08:32:50.676Z,33.23
2022-09-30T08:35:18.883Z,22.23
2022-09-30T08:37:47.059Z,10.17
2022-09-30T08:40:20.975Z,11.83
2022-09-30T08:43:17.993Z,14.77
2022-09-30T08:45:53.426Z,14.77
2022-09-30T08:48:43.284Z,11.93
2022-09-30T08:51:29.063Z,12.73
2022-09-30T08:53:58.431Z,11.73
2022-09-30T08:56:28.423Z,12.30
2022-09-30T08:58:59.226Z,10.50
2022-09-30T09:01:31.981Z,14.50
2022-09-30T09:04:02.412Z,12.57
2022-09-30T09:06:34.316Z,12.53
2022-09-30T09:09:23.728Z,12.40
2022-09-30T09:12:06.968Z,11.77
2022-09-30T09:14:41.883Z,12.93
2022-09-30T09:17:20.396Z,12.23
2022-09-30T09:19:59.781Z,12.50
2022-09-30T09:22:28.301Z,13.43
2022-09-30T09:24:56.478Z,14.13
2022-09-30T09:27:31.771Z,13.73
2022-09-30T09:30:07.503Z,13.00
2022-09-30T09:32:36.061Z,11.53
2022-09-30T09:35:15.051Z,13.10
2022-09-30T09:38:08.493Z,11.27
2022-09-30T09:40:42.760Z,14.97
2022-09-30T09:43:18.780Z,11.33
2022-09-30T09:45:52.636Z,13.83
2022-09-30T09:48:20.893Z,12.50
2022-09-30T09:50:58.930Z,14.10
2022-09-30T09:53:45.187Z,11.07
2022-09-30T09:56:19.976Z,11.80
2022-09-30T09:59:09.386Z,16.50
2022-09-30T10:01:39.678Z,11.63
2022-09-30T10:04:17.838Z,11.87
2022-09-30T10:06:54.046Z,10.53
2022-09-30T10:09:31.288Z,10.03
2022-09-30T10:12:28.365Z,10.17
2022-09-30T10:15:03.167Z,10.47
2022-09-30T10:17:32.992Z,10.63
2022-09-30T10:20:07.022Z,10.43
2022-09-30T10:22:37.107Z,8.93
2022-09-30T10:25:24.176Z,9.87
2022-09-30T10:27:55.891Z,8.73
2022-09-30T10:30:41.292Z,9.17
2022-09-30T10:33:25.785Z,8.30
2022-09-30T10:35:58.026Z,10.93
2022-09-30T10:38:29.349Z,11.43
2022-09-30T10:40:57.623Z,7.30
2022-09-30T10:43:29.049Z,8.90
2022-09-30T10:46:21.317Z,12.80
2022-09-30T10:48:47.690Z,9.63
2022-09-30T10:51:24.726Z,10.33
2022-09-30T10:53:54.509Z,7.77
2022-09-30T10:56:44.616Z,7.03
2022-09-30T10:59:27.429Z,5.90
2022-09-30T11:01:58.618Z,9.17
2022-09-30T11:04:30.821Z,6.47
2022-09-30T11:07:04.583Z,6.40
2022-09-30T11:09:39.329Z,5.77
2022-09-30T11:12:14.476Z,5.83
2022-09-30T11:14:47.074Z,7.60
2022-09-30T11:17:26.881Z,5.87
2022-09-30T11:20:01.770Z,6.53
2022-09-30T11:22:35.511Z,6.70
2022-09-30T11:25:10.933Z,6.33
2022-09-30T11:28:03.663Z,5.77
2022-09-30T11:30:34.363Z,7.97
2022-09-30T11:33:25.365Z,6.67
2022-09-30T11:35:57.524Z,6.93
2022-09-30T11:38:47.775Z,5.47
2022-09-30T11:41:20.855Z,7.43
2022-09-30T11:43:57.234Z,5.50
2022-09-30T11:46:48.458Z,6.97
2022-09-30T11:49:33.844Z,5.80
2022-09-30T11:52:07.862Z,7.50
2022-09-30T11:54:48.593Z,5.13
2022-09-30T11:57:22.102Z,5.97
2022-09-30T11:59:53.931Z,6.17
2022-09-30T12:02:31.801Z,5.83
2022-09-30T12:05:02.365Z,5.07
2022-09-30T12:07:39.193Z,5.93
2022-09-30T12:10:16.989Z,4.97
2022-09-30T12:12:46.706Z,4.87
2022-09-30T12:15:17.427Z,5.73
2022-09-30T12:17:47.859Z,4.17
2022-09-30T12:20:19.208Z,5.07
2022-09-30T12:22:47.697Z,3.77
2022-09-30T12:25:19.740Z,6.57
2022-09-30T12:27:51.499Z,4.97
2022-09-30T12:30:21.026Z,6.90
2022-09-30T12:33:33.044Z,6.17
2022-09-30T12:36:37.832Z,6.97
2022-09-30T12:39:51.346Z,6.40
2022-09-30T12:42:52.769Z,9.13
2022-09-30T12:46:07.203Z,6.47
2022-09-30T12:48:39.040Z,5.93
2022-09-30T12:51:07.169Z,6.53
2022-09-30T12:53:37.154Z,8.57
2022-09-30T12:56:07.088Z,7.23
2022-09-30T12:58:38.385Z,7.87
2022-09-30T13:01:08.696Z,5.73
2022-09-30T13:04:17.912Z,5.80
2022-09-30T13:07:18.879Z,5.90
2022-09-30T13:10:18.681Z,6.13
2022-09-30T13:12:47.657Z,7.30
2022-09-30T13:15:45.257Z,8.17
2022-09-30T13:18:59.202Z,7.63
2022-09-30T13:21:27.317Z,5.33
2022-09-30T13:23:56.482Z,6.37
2022-09-30T13:26:39.075Z,11.73
2022-09-30T13:29:39.859Z,7.77
2022-09-30T13:32:10.536Z,6.47
2022-09-30T13:34:57.221Z,8.40
2022-09-30T13:37:41.085Z,6.43
2022-09-30T13:40:23.158Z,6.47
2022-09-30T13:43:04.497Z,6.90
2022-09-30T13:45:36.848Z,7.53
2022-09-30T13:48:12.176Z,9.47
2022-09-30T13:50:47.442Z,8.07
2022-09-30T13:53:22.440Z,6.67
2022-09-30T13:55:53.672Z,8.60
2022-09-30T13:59:09.775Z,8.43
2022-09-30T14:01:53.607Z,6.87
2022-09-30T14:04:47.647Z,7.00
2022-09-30T14:07:20.905Z,9.40
2022-09-30T14:10:09.092Z,7.10
2022-09-30T14:12:53.610Z,5.57
2022-09-30T14:16:06.753Z,7.67
2022-09-30T14:19:07.089Z,6.40
2022-09-30T14:21:38.539Z,6.47
2022-09-30T14:24:12.856Z,6.47
2022-09-30T14:27:11.074Z,6.13
2022-09-30T14:29:46.109Z,5.93
2022-09-30T14:32:15.161Z,6.33
2022-09-30T14:34:43.317Z,5.17
2022-09-30T14:37:18.770Z,7.03
2022-09-30T14:39:48.143Z,8.00
2022-09-30T14:42:28.085Z,5.50
2022-09-30T14:45:02.108Z,5.07
2022-09-30T14:47:32.009Z,5.53
2022-09-30T14:50:01.030Z,7.03
2022-09-30T14:52:39.449Z,4.97
2022-09-30T14:55:26.914Z,6.83
2022-09-30T14:57:56.108Z,4.93
2022-09-30T15:00:31.077Z,6.10
2022-09-30T15:03:00.393Z,5.77
2022-09-30T15:05:28.640Z,5.83
2022-09-30T15:07:58.201Z,5.00
2022-09-30T15:10:26.648Z,5.00
2022-09-30T15:12:56.045Z,4.63
2022-09-30T15:15:28.445Z,5.03
2022-09-30T15:17:56.891Z,7.27
2022-09-30T15:20:29.283Z,6.63
2022-09-30T15:23:03.200Z,7.33
2022-09-30T15:25:31.630Z,6.33
2022-09-30T15:27:59.941Z,4.73
2022-09-30T15:30:29.493Z,5.53
2022-09-30T15:33:02.077Z,3.97
2022-09-30T15:35:30.249Z,4.33
2022-09-30T15:38:09.240Z,4.63
2022-09-30T15:40:50.482Z,5.50
2022-09-30T15:43:33.356Z,3.87
2022-09-30T15:46:18.320Z,4.83
2022-09-30T15:48:46.878Z,2.70
2022-09-30T15:51:26.873Z,3.73
2022-09-30T15:53:58.020Z,3.40
2022-09-30T15:56:28.214Z,3.10
2022-09-30T15:58:56.899Z,6.33
2022-09-30T16:01:26.689Z,5.57
2022-09-30T16:03:56.668Z,7.47
2022-09-30T16:06:28.187Z,4.30
2022-09-30T16:09:01.286Z,5.20
2022-09-30T16:11:32.259Z,5.07
2022-09-30T16:14:00.384Z,3.63
2022-09-30T16:16:31.402Z,7.17
2022-09-30T16:19:00.134Z,5.73
2022-09-30T16:21:50.477Z,25.77
2022-09-30T16:24:47.899Z,44.40
2022-09-30T16:27:32.714Z,35.80
2022-09-30T16:30:02.225Z,39.30
2022-09-30T16:32:33.833Z,36.87
2022-09-30T16:35:01.975Z,42.57
2022-09-30T16:37:30.185Z,54.60
2022-09-30T16:40:01.693Z,65.33
2022-09-30T16:42:32.999Z,93.63
2022-09-30T16:45:01.922Z,87.93
2022-09-30T16:47:30.092Z,75.17
2022-09-30T16:49:58.858Z,61.47
2022-09-30T16:52:26.990Z,50.80
2022-09-30T16:54:55.140Z,37.03
2022-09-30T16:57:24.634Z,34.43
2022-09-30T16:59:52.711Z,22.77
2022-09-30T17:02:21.789Z,20.90
2022-09-30T17:04:49.992Z,19.60
2022-09-30T17:07:18.238Z,14.30
2022-09-30T17:09:46.595Z,12.03
2022-09-30T17:12:14.880Z,11.37
2022-09-30T17:14:44.597Z,9.70
2022-09-30T17:17:13.956Z,9.07
2022-09-30T17:19:42.646Z,6.60
2022-09-30T17:22:10.809Z,9.97
2022-09-30T17:24:39.278Z,7.83
2022-09-30T17:27:07.827Z,6.53
2022-09-30T17:29:41.827Z,9.00
2022-09-30T17:32:12.105Z,9.07
2022-09-30T17:34:41.226Z,6.33
2022-09-30T17:37:09.457Z,8.50
2022-09-30T17:39:37.529Z,10.50
2022-09-30T17:42:23.524Z,7.77
2022-09-30T17:44:52.260Z,12.83
2022-09-30T17:47:22.393Z,12.47
2022-09-30T17:49:50.671Z,8.93
2022-09-30T17:52:18.809Z,10.87
2022-09-30T17:54:52.007Z,6.53
2022-09-30T17:57:20.911Z,5.23
2022-09-30T17:59:48.995Z,7.90
2022-09-30T18:02:18.154Z,7.10
2022-09-30T18:04:47.903Z,7.80
2022-09-30T18:07:16.184Z,7.37
2022-09-30T18:09:44.415Z,5.90
2022-09-30T18:12:12.715Z,5.90
2022-09-30T18:14:40.912Z,4.80
2022-09-30T18:17:09.084Z,5.67
2022-09-30T18:19:37.280Z,3.70
2022-09-30T18:22:06.748Z,5.53
2022-09-30T18:24:52.621Z,5.63
2022-09-30T18:27:22.688Z,5.50
2022-09-30T18:29:51.025Z,6.97
2022-09-30T18:32:19.450Z,5.50
2022-09-30T18:34:47.584Z,7.23
2022-09-30T18:37:17.235Z,4.80
2022-09-30T18:39:45.334Z,7.57
2022-09-30T18:42:13.580Z,6.40
2022-09-30T18:44:41.693Z,6.47
2022-09-30T18:47:10.033Z,4.70
2022-09-30T18:49:38.146Z,5.50
2022-09-30T18:52:06.208Z,5.23
2022-09-30T18:54:36.004Z,6.97
2022-09-30T18:57:04.158Z,9.30
2022-09-30T18:59:32.696Z,7.53
2022-09-30T19:02:02.983Z,7.57
2022-09-30T19:04:31.603Z,5.50
2022-09-30T19:06:59.786Z,6.13
2022-09-30T19:09:28.688Z,4.97
2022-09-30T19:12:00.028Z,5.23
2022-09-30T19:14:30.701Z,7.57
2022-09-30T19:16:58.918Z,5.53
2022-09-30T19:19:27.139Z,5.80
2022-09-30T19:22:00.194Z,5.97
2022-09-30T19:24:28.422Z,4.27
2022-09-30T19:26:58.189Z,7.30
2022-09-30T19:29:26.862Z,4.57
2022-09-30T19:31:57.505Z,6.93
2022-09-30T19:34:32.074Z,6.67
2022-09-30T19:37:01.080Z,5.80
2022-09-30T19:39:40.410Z,7.47
2022-09-30T19:42:14.270Z,6.33
2022-09-30T19:44:42.895Z,8.57
2022-09-30T19:47:11.109Z,7.30
2022-09-30T19:49:39.391Z,8.13
2022-09-30T19:52:16.950Z,7.03
2022-09-30T19:54:47.081Z,6.30
2022-09-30T19:57:16.806Z,5.13
2022-09-30T19:59:45.041Z,9.77
2022-09-30T20:02:13.249Z,5.47
2022-09-30T20:05:00.558Z,5.97
2022-09-30T20:07:51.067Z,4.90
2022-09-30T20:10:39.744Z,7.70
2022-09-30T20:13:29.990Z,7.83
2022-09-30T20:16:17.540Z,5.90
2022-09-30T20:19:06.164Z,5.80
2022-09-30T20:21:54.926Z,5.10
2022-09-30T20:24:43.287Z,6.57
2022-09-30T20:27:32.979Z,4.87
2022-09-30T20:30:22.855Z,6.27
2022-09-30T20:33:11.314Z,10.30
2022-09-30T20:36:01.076Z,7.90
2022-09-30T20:38:51.307Z,7.37
2022-09-30T20:41:40.500Z,6.00
2022-09-30T20:44:28.887Z,8.57
2022-09-30T20:47:19.332Z,8.83
2022-09-30T20:50:08.774Z,8.27
2022-09-30T20:52:57.323Z,7.23
2022-09-30T20:55:45.858Z,4.90
2022-09-30T20:58:34.355Z,4.00
2022-09-30T21:01:23.975Z,5.50
2022-09-30T21:04:13.930Z,6.67
2022-09-30T21:07:02.422Z,4.73
2022-09-30T21:09:51.481Z,6.13
2022-09-30T21:12:40.024Z,9.47
2022-09-30T21:15:28.997Z,6.10
2022-09-30T21:18:17.485Z,5.33
2022-09-30T21:21:07.684Z,5.47
2022-09-30T21:23:57.487Z,8.37
2022-09-30T21:26:46.050Z,6.13
2022-09-30T21:29:34.478Z,6.00
2022-09-30T21:32:22.888Z,7.23
2022-09-30T21:35:12.778Z,9.00
2022-09-30T21:38:02.588Z,5.30
2022-09-30T21:40:51.420Z,7.33
2022-09-30T21:43:39.951Z,6.63
2022-09-30T21:46:29.480Z,5.73
2022-09-30T21:49:19.936Z,10.27
2022-09-30T21:52:10.445Z,7.67
2022-09-30T21:55:00.188Z,7.27
2022-09-30T21:57:48.594Z,8.80
2022-09-30T22:00:37.068Z,6.87
2022-09-30T22:03:25.614Z,8.23
2022-09-30T22:06:14.380Z,8.53
2022-09-30T22:09:02.868Z,10.40
2022-09-30T22:11:52.891Z,10.37
2022-09-30T22:14:41.342Z,7.97
2022-09-30T22:17:29.787Z,9.40
2022-09-30T22:20:19.530Z,9.87
2022-09-30T22:23:08.037Z,7.67
2022-09-30T22:25:57.420Z,7.10
2022-09-30T22:28:47.639Z,9.60
2022-09-30T22:31:36.389Z,8.93
2022-09-30T22:34:42.891Z,8.37
2022-09-30T22:37:48.898Z,7.97
2022-09-30T22:40:37.402Z,6.73
2022-09-30T22:43:25.913Z,7.47
2022-09-30T22:46:15.742Z,6.33
2022-09-30T22:49:04.377Z,6.47
2022-09-30T22:51:52.840Z,6.50
2022-09-30T22:54:41.258Z,7.80
2022-09-30T22:57:30.915Z,11.27
2022-09-30T23:00:19.427Z,6.03
2022-09-30T23:03:10.110Z,6.33
2022-09-30T23:06:01.393Z,7.13
2022-09-30T23:08:50.338Z,5.07
2022-09-30T23:11:39.184Z,5.07
2022-09-30T23:14:27.992Z,6.87
2022-09-30T23:17:16.332Z,5.83
2022-09-30T23:20:08.528Z,5.67
2022-09-30T23:22:57.064Z,5.30
2022-09-30T23:25:45.589Z,6.67
2022-09-30T23:28:34.085Z,6.80
2022-09-30T23:31:22.535Z,7.77
2022-09-30T23:34:11.012Z,6.67
2022-09-30T23:37:00.831Z,9.93
2022-09-30T23:39:49.365Z,6.70
2022-09-30T23:42:37.842Z,10.47
2022-09-30T23:45:26.226Z,6.93
2022-09-30T23:48:14.659Z,11.87
2022-09-30T23:51:04.355Z,6.93
2022-09-30T23:53:54.309Z,6.50
2022-09-30T23:56:42.752Z,10.20
2022-09-30T23:59:31.344Z,7.40
